createdAt,value
2018-06-28T00:01:18.875Z,4.40
2018-06-28T00:03:47.518Z,4.53
2018-06-28T00:06:16.032Z,5.93
2018-06-28T00:08:44.659Z,4.97
2018-06-28T00:11:13.370Z,4.97
2018-06-28T00:13:42.142Z,4.23
2018-06-28T00:16:10.650Z,5.30
2018-06-28T00:18:44.078Z,3.50
2018-06-28T00:21:12.594Z,6.07
2018-06-28T00:23:41.065Z,4.63
2018-06-28T00:26:09.814Z,4.13
2018-06-28T00:28:38.343Z,5.63
2018-06-28T00:31:06.863Z,4.60
2018-06-28T00:33:35.379Z,8.80
2018-06-28T00:36:04.240Z,4.03
2018-06-28T00:38:32.777Z,3.83
2018-06-28T00:41:01.362Z,4.07
2018-06-28T00:43:29.745Z,4.57
2018-06-28T00:45:58.318Z,3.90
2018-06-28T00:48:26.509Z,5.40
2018-06-28T00:50:54.998Z,4.50
2018-06-28T00:53:23.531Z,4.80
2018-06-28T00:55:52.022Z,5.53
2018-06-28T00:58:20.503Z,6.03
2018-06-28T01:00:48.993Z,5.07
2018-06-28T01:03:17.737Z,4.53
2018-06-28T01:05:46.231Z,7.60
2018-06-28T01:08:14.687Z,4.97
2018-06-28T01:10:43.146Z,6.03
2018-06-28T01:13:11.675Z,4.87
2018-06-28T01:15:40.202Z,5.30
2018-06-28T01:18:08.441Z,5.00
2018-06-28T01:20:36.938Z,6.43
2018-06-28T01:23:05.819Z,5.87
2018-06-28T01:25:34.445Z,5.63
2018-06-28T01:28:02.938Z,6.80
2018-06-28T01:30:31.482Z,6.83
2018-06-28T01:32:59.999Z,6.57
2018-06-28T01:35:28.177Z,6.33
2018-06-28T01:37:56.883Z,5.40
2018-06-28T01:40:25.401Z,7.77
2018-06-28T01:43:59.922Z,5.77
2018-06-28T01:46:28.630Z,6.40
2018-06-28T01:48:57.160Z,5.37
2018-06-28T01:51:25.732Z,5.33
2018-06-28T01:53:54.489Z,5.70
2018-06-28T01:56:22.973Z,9.10
2018-06-28T01:58:51.479Z,5.13
2018-06-28T02:01:19.644Z,5.47
2018-06-28T02:03:48.143Z,5.43
2018-06-28T02:06:16.614Z,5.00
2018-06-28T02:08:44.808Z,5.60
2018-06-28T02:11:13.281Z,5.50
2018-06-28T02:13:41.432Z,4.70
2018-06-28T02:16:10.137Z,5.10
2018-06-28T02:18:38.333Z,5.10
2018-06-28T02:21:06.826Z,7.30
2018-06-28T02:23:35.353Z,8.10
2018-06-28T02:26:03.821Z,9.87
2018-06-28T02:28:32.322Z,6.97
2018-06-28T02:31:00.838Z,8.37
2018-06-28T02:33:29.266Z,11.40
2018-06-28T02:35:57.771Z,5.83
2018-06-28T02:38:25.968Z,12.27
2018-06-28T02:40:54.149Z,4.50
2018-06-28T02:43:22.599Z,6.23
2018-06-28T02:45:51.069Z,8.27
2018-06-28T02:48:24.034Z,6.40
2018-06-28T02:50:52.738Z,10.03
2018-06-28T02:53:21.756Z,7.00
2018-06-28T02:55:50.274Z,6.37
2018-06-28T02:58:18.722Z,5.43
2018-06-28T03:00:47.490Z,6.00
2018-06-28T03:03:15.959Z,5.00
2018-06-28T03:05:44.396Z,5.70
2018-06-28T03:08:12.885Z,7.13
2018-06-28T03:10:41.347Z,6.83
2018-06-28T03:13:09.824Z,9.20
2018-06-28T03:15:38.316Z,8.07
2018-06-28T03:18:06.829Z,6.70
2018-06-28T03:20:35.280Z,6.83
2018-06-28T03:23:03.682Z,8.27
2018-06-28T03:25:32.345Z,5.90
2018-06-28T03:28:00.504Z,7.10
2018-06-28T03:30:29.191Z,6.57
2018-06-28T03:32:57.640Z,8.03
2018-06-28T03:35:26.058Z,6.10
2018-06-28T03:37:54.642Z,8.40
2018-06-28T03:40:22.972Z,5.73
2018-06-28T03:42:51.398Z,6.30
2018-06-28T03:45:20.081Z,6.13
2018-06-28T03:47:48.569Z,6.97
2018-06-28T03:50:17.050Z,7.83
2018-06-28T03:52:45.490Z,7.47
2018-06-28T03:55:13.921Z,5.30
2018-06-28T03:57:42.362Z,5.60
2018-06-28T04:00:10.878Z,5.57
2018-06-28T04:02:39.705Z,8.17
2018-06-28T04:05:08.158Z,6.13
2018-06-28T04:07:36.698Z,5.23
2018-06-28T04:10:05.203Z,8.13
2018-06-28T04:12:33.679Z,6.93
2018-06-28T04:15:02.158Z,7.37
2018-06-28T04:17:30.641Z,7.60
2018-06-28T04:19:59.131Z,4.87
2018-06-28T04:22:30.139Z,6.37
2018-06-28T04:24:59.950Z,6.23
2018-06-28T04:27:28.997Z,5.50
2018-06-28T04:29:57.774Z,5.10
2018-06-28T04:32:26.230Z,6.20
2018-06-28T04:34:54.662Z,7.70
2018-06-28T04:37:22.789Z,6.37
2018-06-28T04:39:51.234Z,5.30
2018-06-28T04:42:19.647Z,6.60
2018-06-28T04:44:48.094Z,8.30
2018-06-28T04:47:16.781Z,6.37
2018-06-28T04:49:45.239Z,5.80
2018-06-28T04:52:13.622Z,7.47
2018-06-28T04:54:42.111Z,5.17
2018-06-28T04:57:10.628Z,6.20
2018-06-28T04:59:39.073Z,5.13
2018-06-28T05:02:07.245Z,5.00
2018-06-28T05:04:35.677Z,8.80
2018-06-28T05:07:04.410Z,5.63
2018-06-28T05:09:32.836Z,5.03
2018-06-28T05:12:01.298Z,10.77
2018-06-28T05:14:29.747Z,6.10
2018-06-28T05:16:58.237Z,7.03
2018-06-28T05:19:26.701Z,7.53
2018-06-28T05:21:55.286Z,5.70
2018-06-28T05:24:23.571Z,5.80
2018-06-28T05:26:52.298Z,6.00
2018-06-28T05:29:20.710Z,5.53
2018-06-28T05:31:49.134Z,4.80
2018-06-28T05:34:17.546Z,5.57
2018-06-28T05:36:46.006Z,7.17
2018-06-28T05:39:14.470Z,5.57
2018-06-28T05:41:42.892Z,7.57
2018-06-28T05:44:11.358Z,6.07
2018-06-28T05:46:39.831Z,6.80
2018-06-28T05:49:08.478Z,5.90
2018-06-28T05:51:36.969Z,6.13
2018-06-28T05:54:05.463Z,6.57
2018-06-28T05:56:33.861Z,9.00
2018-06-28T05:59:02.010Z,8.70
2018-06-28T06:01:31.100Z,6.00
2018-06-28T06:03:59.557Z,7.03
2018-06-28T06:06:28.442Z,5.80
2018-06-28T06:08:56.869Z,6.30
2018-06-28T06:11:25.308Z,6.10
2018-06-28T06:13:53.723Z,7.00
2018-06-28T06:16:22.166Z,7.43
2018-06-28T06:18:50.625Z,8.00
2018-06-28T06:21:19.027Z,6.40
2018-06-28T06:23:48.263Z,8.63
2018-06-28T06:26:16.454Z,8.20
2018-06-28T06:28:45.115Z,7.63
2018-06-28T06:31:13.559Z,8.03
2018-06-28T06:33:41.993Z,6.57
2018-06-28T06:36:10.463Z,7.10
2018-06-28T06:38:40.497Z,7.57
2018-06-28T06:41:08.941Z,11.00
2018-06-28T06:43:37.394Z,7.40
2018-06-28T06:46:05.845Z,6.57
2018-06-28T06:48:34.347Z,7.63
2018-06-28T06:51:02.774Z,8.70
2018-06-28T06:53:31.202Z,6.93
2018-06-28T06:55:59.586Z,12.20
2018-06-28T06:58:28.092Z,7.67
2018-06-28T07:00:56.562Z,8.17
2018-06-28T07:03:25.074Z,9.03
2018-06-28T07:05:53.813Z,8.40
2018-06-28T07:08:22.238Z,8.87
2018-06-28T07:10:51.078Z,8.07
2018-06-28T07:13:19.549Z,8.17
2018-06-28T07:15:48.050Z,7.03
2018-06-28T07:18:16.420Z,7.87
2018-06-28T07:20:44.928Z,7.87
2018-06-28T07:23:14.227Z,9.03
2018-06-28T07:25:42.726Z,8.47
2018-06-28T07:28:11.201Z,8.87
2018-06-28T07:30:39.670Z,8.03
2018-06-28T07:33:08.183Z,7.33
2018-06-28T07:35:36.578Z,8.40
2018-06-28T07:38:05.362Z,7.53
2018-06-28T07:40:33.840Z,8.63
2018-06-28T07:43:02.297Z,7.80
2018-06-28T07:45:30.817Z,8.27
2018-06-28T07:47:59.247Z,8.00
2018-06-28T07:50:27.413Z,8.67
2018-06-28T07:52:55.865Z,13.73
2018-06-28T07:55:24.379Z,7.33
2018-06-28T07:57:52.962Z,7.33
2018-06-28T08:00:21.430Z,7.40
2018-06-28T08:02:49.863Z,6.73
2018-06-28T08:05:18.353Z,8.37
2018-06-28T08:07:46.789Z,8.80
2018-06-28T08:10:15.250Z,9.73
2018-06-28T08:12:44.325Z,9.73
2018-06-28T08:15:12.806Z,9.70
2018-06-28T08:17:41.272Z,13.30
2018-06-28T08:20:09.734Z,10.33
2018-06-28T08:22:38.379Z,7.53
2018-06-28T08:25:06.829Z,8.57
2018-06-28T08:27:35.382Z,6.07
2018-06-28T08:30:03.516Z,7.60
2018-06-28T08:32:31.959Z,7.17
2018-06-28T08:35:00.387Z,10.20
2018-06-28T08:37:28.951Z,12.17
2018-06-28T08:39:57.406Z,11.20
2018-06-28T08:42:25.848Z,8.43
2018-06-28T08:44:54.298Z,8.67
2018-06-28T08:47:22.738Z,8.07
2018-06-28T08:49:51.178Z,8.03
2018-06-28T08:52:19.599Z,9.77
2018-06-28T08:54:48.104Z,11.03
2018-06-28T08:57:16.564Z,9.03
2018-06-28T08:59:45.262Z,9.00
2018-06-28T09:02:13.802Z,9.03
2018-06-28T09:04:42.262Z,8.47
2018-06-28T09:07:10.735Z,9.30
2018-06-28T09:09:39.385Z,7.30
2018-06-28T09:12:07.939Z,9.80
2018-06-28T09:14:36.353Z,8.70
2018-06-28T09:17:04.846Z,7.53
2018-06-28T09:19:33.286Z,7.83
2018-06-28T09:22:01.765Z,7.83
2018-06-28T09:24:30.277Z,13.27
2018-06-28T09:26:58.755Z,8.93
2018-06-28T09:29:27.273Z,8.00
2018-06-28T09:31:55.774Z,8.57
2018-06-28T09:34:24.263Z,6.97
2018-06-28T09:36:52.770Z,7.37
2018-06-28T09:39:21.459Z,8.37
2018-06-28T09:41:49.625Z,8.10
2018-06-28T09:44:18.061Z,7.17
2018-06-28T09:46:46.541Z,8.30
2018-06-28T09:49:15.235Z,8.67
2018-06-28T09:51:44.611Z,7.87
2018-06-28T09:54:13.070Z,7.67
2018-06-28T09:56:41.795Z,7.70
2018-06-28T09:59:10.269Z,9.90
2018-06-28T10:01:38.754Z,11.70
2018-06-28T10:04:08.329Z,8.60
2018-06-28T10:06:36.545Z,8.73
2018-06-28T10:09:07.097Z,8.07
2018-06-28T10:11:35.837Z,8.83
2018-06-28T10:14:04.858Z,7.57
2018-06-28T10:16:33.321Z,8.53
2018-06-28T10:19:02.369Z,7.40
2018-06-28T10:21:30.822Z,9.77
2018-06-28T10:23:59.841Z,9.40
2018-06-28T10:26:29.170Z,11.70
2018-06-28T10:28:57.702Z,8.27
2018-06-28T10:31:26.153Z,8.80
2018-06-28T10:33:55.334Z,7.47
2018-06-28T10:36:23.839Z,10.07
2018-06-28T10:38:52.268Z,7.80
2018-06-28T10:41:21.223Z,7.50
2018-06-28T10:43:49.700Z,10.77
2018-06-28T10:46:18.133Z,7.10
2018-06-28T10:48:46.938Z,6.67
2018-06-28T10:51:15.342Z,9.37
2018-06-28T10:53:43.800Z,8.20
2018-06-28T10:56:12.233Z,9.00
2018-06-28T10:58:40.694Z,8.70
2018-06-28T11:01:09.412Z,8.97
2018-06-28T11:03:37.854Z,9.37
2018-06-28T11:06:06.342Z,11.13
2018-06-28T11:08:34.769Z,10.93
2018-06-28T11:11:03.266Z,10.70
2018-06-28T11:13:31.673Z,13.60
2018-06-28T11:16:01.071Z,12.77
2018-06-28T11:18:29.287Z,15.80
2018-06-28T11:20:57.673Z,18.03
2018-06-28T11:23:26.132Z,17.53
2018-06-28T11:25:54.586Z,14.60
2018-06-28T11:28:23.061Z,15.63
2018-06-28T11:30:51.530Z,16.63
2018-06-28T11:33:20.226Z,18.97
2018-06-28T11:35:48.742Z,17.50
2018-06-28T11:38:17.198Z,23.60
2018-06-28T11:40:45.646Z,16.90
2018-06-28T11:43:14.331Z,18.07
2018-06-28T11:45:42.796Z,19.30
2018-06-28T11:48:11.242Z,26.03
2018-06-28T11:50:39.414Z,24.90
2018-06-28T11:53:08.547Z,19.60
2018-06-28T11:55:37.806Z,24.17
2018-06-28T11:58:06.296Z,19.87
2018-06-28T12:00:34.453Z,18.23
2018-06-28T12:03:02.886Z,20.23
2018-06-28T12:05:31.457Z,18.50
2018-06-28T12:07:59.869Z,18.83
2018-06-28T12:10:28.565Z,16.53
2018-06-28T12:12:58.858Z,17.03
2018-06-28T12:15:27.332Z,14.50
2018-06-28T12:17:56.051Z,17.13
2018-06-28T12:20:24.553Z,21.03
2018-06-28T12:22:53.088Z,15.27
2018-06-28T12:25:21.571Z,18.93
2018-06-28T12:27:50.054Z,13.93
2018-06-28T12:30:18.523Z,16.33
2018-06-28T12:32:46.982Z,15.27
2018-06-28T12:35:15.455Z,15.47
2018-06-28T12:37:43.898Z,19.10
2018-06-28T12:40:16.343Z,16.67
2018-06-28T12:42:44.909Z,17.63
2018-06-28T12:45:13.186Z,13.80
2018-06-28T12:47:57.721Z,14.23
2018-06-28T12:50:26.274Z,15.10
2018-06-28T12:52:57.802Z,12.60
2018-06-28T12:55:27.023Z,14.47
2018-06-28T12:57:56.730Z,14.67
2018-06-28T13:00:25.206Z,12.03
2018-06-28T13:02:53.673Z,17.00
2018-06-28T13:05:22.122Z,12.90
2018-06-28T13:07:50.585Z,14.20
2018-06-28T13:10:19.169Z,13.53
2018-06-28T13:12:47.658Z,15.20
2018-06-28T13:15:16.496Z,12.83
2018-06-28T13:17:45.051Z,11.67
2018-06-28T13:20:13.583Z,13.57
2018-06-28T13:22:42.005Z,14.60
2018-06-28T13:25:11.643Z,12.97
2018-06-28T13:27:39.821Z,11.67
2018-06-28T13:30:09.628Z,11.93
2018-06-28T13:32:37.794Z,16.83
2018-06-28T13:35:06.617Z,16.03
2018-06-28T13:37:35.269Z,15.67
2018-06-28T13:40:03.451Z,15.70
2018-06-28T13:42:31.809Z,15.10
2018-06-28T13:45:00.410Z,16.33
2018-06-28T13:47:28.874Z,14.77
2018-06-28T13:49:57.329Z,16.70
2018-06-28T13:52:25.856Z,14.10
2018-06-28T13:54:54.294Z,15.37
2018-06-28T13:57:22.737Z,16.80
2018-06-28T13:59:51.293Z,15.80
2018-06-28T14:02:19.768Z,15.40
2018-06-28T14:04:49.464Z,18.13
2018-06-28T14:07:17.949Z,15.73
2018-06-28T14:09:46.442Z,16.60
2018-06-28T14:12:14.956Z,20.77
2018-06-28T14:14:43.762Z,19.73
2018-06-28T14:17:12.304Z,19.23
2018-06-28T14:19:42.129Z,19.27
2018-06-28T14:22:10.680Z,18.20
2018-06-28T14:24:39.398Z,17.10
2018-06-28T14:27:07.884Z,18.87
2018-06-28T14:29:37.443Z,14.50
2018-06-28T14:32:06.138Z,18.53
2018-06-28T14:34:34.621Z,18.97
2018-06-28T14:37:03.117Z,16.03
2018-06-28T14:39:31.637Z,17.00
2018-06-28T14:42:00.411Z,19.67
2018-06-28T14:44:28.765Z,18.77
2018-06-28T14:46:57.226Z,18.00
2018-06-28T14:49:25.764Z,17.63
2018-06-28T14:51:54.230Z,16.70
2018-06-28T14:54:23.194Z,16.47
2018-06-28T14:56:51.715Z,17.17
2018-06-28T14:59:20.177Z,18.27
2018-06-28T15:01:48.590Z,17.10
2018-06-28T15:04:16.769Z,17.83
2018-06-28T15:06:45.202Z,17.17
2018-06-28T15:09:13.800Z,19.30
2018-06-28T15:11:43.155Z,22.17
2018-06-28T15:14:11.581Z,19.23
2018-06-28T15:16:40.447Z,22.00
2018-06-28T15:19:08.977Z,17.30
2018-06-28T15:21:37.487Z,21.43
2018-06-28T15:24:05.986Z,17.93
2018-06-28T15:26:34.631Z,17.73
2018-06-28T15:29:03.097Z,15.83
2018-06-28T15:31:31.766Z,21.23
2018-06-28T15:34:00.213Z,16.10
2018-06-28T15:36:28.660Z,14.97
2018-06-28T15:38:57.282Z,17.33
2018-06-28T15:41:26.253Z,19.07
2018-06-28T15:43:54.746Z,19.27
2018-06-28T15:46:23.280Z,19.60
2018-06-28T15:48:51.726Z,22.90
2018-06-28T15:51:20.190Z,21.60
2018-06-28T15:53:48.650Z,20.73
2018-06-28T15:56:18.018Z,20.27
2018-06-28T15:58:46.533Z,21.20
2018-06-28T16:01:15.031Z,18.67
2018-06-28T16:03:43.563Z,19.50
2018-06-28T16:06:12.118Z,18.23
2018-06-28T16:08:40.901Z,22.63
2018-06-28T16:11:09.465Z,19.57
2018-06-28T16:13:37.949Z,21.40
2018-06-28T16:16:06.201Z,20.83
2018-06-28T16:18:34.858Z,20.60
2018-06-28T16:21:03.401Z,17.67
2018-06-28T16:23:31.889Z,20.67
2018-06-28T16:26:00.371Z,18.17
2018-06-28T16:28:28.541Z,20.73
2018-06-28T16:30:57.288Z,19.40
2018-06-28T16:33:25.733Z,17.37
2018-06-28T16:35:54.200Z,20.07
2018-06-28T16:38:22.723Z,18.57
2018-06-28T16:40:51.207Z,18.50
2018-06-28T16:43:20.617Z,19.17
2018-06-28T16:45:49.178Z,18.10
2018-06-28T16:48:18.576Z,19.27
2018-06-28T16:50:47.059Z,20.53
2018-06-28T16:53:15.566Z,18.33
2018-06-28T16:55:44.048Z,16.87
2018-06-28T16:58:12.543Z,16.00
2018-06-28T17:00:41.565Z,15.63
2018-06-28T17:03:12.757Z,16.73
2018-06-28T17:05:41.215Z,21.10
2018-06-28T17:08:09.660Z,15.97
2018-06-28T17:10:38.323Z,16.70
2018-06-28T17:13:07.149Z,16.60
2018-06-28T17:15:36.184Z,19.90
2018-06-28T17:18:04.666Z,17.10
2018-06-28T17:20:33.318Z,19.60
2018-06-28T17:23:01.761Z,17.43
2018-06-28T17:25:30.302Z,15.70
2018-06-28T17:27:59.223Z,17.97
2018-06-28T17:30:27.696Z,16.90
2018-06-28T17:32:56.176Z,14.53
2018-06-28T17:35:24.666Z,15.57
2018-06-28T17:37:53.119Z,14.93
2018-06-28T17:40:21.353Z,14.23
2018-06-28T17:42:49.749Z,14.83
2018-06-28T17:45:18.266Z,16.43
2018-06-28T17:47:46.806Z,16.40
2018-06-28T17:50:15.348Z,14.90
2018-06-28T17:52:44.041Z,15.40
2018-06-28T17:55:12.525Z,13.20
2018-06-28T17:57:41.013Z,15.30
2018-06-28T18:00:09.536Z,18.17
2018-06-28T18:02:38.006Z,18.83
2018-06-28T18:05:06.530Z,17.93
2018-06-28T18:07:35.013Z,17.17
2018-06-28T18:10:03.582Z,19.57
2018-06-28T18:12:32.075Z,21.40
2018-06-28T18:15:00.556Z,25.10
2018-06-28T18:17:29.043Z,16.50
2018-06-28T18:19:57.543Z,17.20
2018-06-28T18:22:28.852Z,20.63
2018-06-28T18:24:57.542Z,22.30
2018-06-28T18:27:25.696Z,17.63
2018-06-28T18:29:54.293Z,19.93
2018-06-28T18:32:23.220Z,21.00
2018-06-28T18:34:51.919Z,19.97
2018-06-28T18:37:20.382Z,18.13
2018-06-28T18:39:48.889Z,16.77
2018-06-28T18:42:17.445Z,21.70
2018-06-28T18:44:45.990Z,19.77
2018-06-28T18:47:14.640Z,17.90
2018-06-28T18:49:44.182Z,19.97
2018-06-28T18:52:13.856Z,21.23
2018-06-28T18:54:43.248Z,16.90
2018-06-28T18:57:12.636Z,18.80
2018-06-28T18:59:41.943Z,15.80
2018-06-28T19:02:11.565Z,16.10
2018-06-28T19:04:42.991Z,16.43
2018-06-28T19:07:13.038Z,21.20
2018-06-28T19:09:48.381Z,15.77
2018-06-28T19:12:18.013Z,17.37
2018-06-28T19:14:52.518Z,16.03
2018-06-28T19:17:22.054Z,16.13
2018-06-28T19:19:51.420Z,16.33
2018-06-28T19:22:25.769Z,14.93
2018-06-28T19:24:55.896Z,18.43
2018-06-28T19:27:25.304Z,18.20
2018-06-28T19:30:00.303Z,18.17
2018-06-28T19:32:35.201Z,17.57
2018-06-28T19:35:13.161Z,17.17
2018-06-28T19:37:55.787Z,16.00
2018-06-28T19:40:37.398Z,13.10
2018-06-28T19:43:11.586Z,16.77
2018-06-28T19:45:43.786Z,16.83
2018-06-28T19:48:16.885Z,15.37
2018-06-28T19:50:57.600Z,12.93
2018-06-28T19:53:42.168Z,13.83
2018-06-28T19:56:16.332Z,16.40
2018-06-28T19:58:49.810Z,15.87
2018-06-28T20:01:32.741Z,14.70
2018-06-28T20:04:20.520Z,14.90
2018-06-28T20:07:03.784Z,14.30
2018-06-28T20:09:33.472Z,12.10
2018-06-28T20:12:03.379Z,13.73
2018-06-28T20:14:37.419Z,12.80
2018-06-28T20:17:11.408Z,11.10
2018-06-28T20:19:45.309Z,11.00
2018-06-28T20:22:13.887Z,14.33
2018-06-28T20:24:42.692Z,13.67
2018-06-28T20:27:17.605Z,14.13
2018-06-28T20:29:51.653Z,14.13
2018-06-28T20:32:28.659Z,15.63
2018-06-28T20:34:58.275Z,12.93
2018-06-28T20:37:27.105Z,11.70
2018-06-28T20:39:57.859Z,14.50
2018-06-28T20:42:30.655Z,14.30
2018-06-28T20:44:59.312Z,15.87
2018-06-28T20:47:27.449Z,19.03
2018-06-28T20:49:55.916Z,17.53
2018-06-28T20:52:25.530Z,24.03
2018-06-28T20:54:54.109Z,16.97
2018-06-28T20:57:22.566Z,14.50
2018-06-28T20:59:51.164Z,12.53
2018-06-28T21:02:19.695Z,17.80
2018-06-28T21:04:48.247Z,22.87
2018-06-28T21:07:16.930Z,16.30
2018-06-28T21:09:45.441Z,17.73
2018-06-28T21:12:13.905Z,18.30
2018-06-28T21:14:42.451Z,14.00
2018-06-28T21:17:10.957Z,13.90
2018-06-28T21:19:39.567Z,19.63
2018-06-28T21:22:07.920Z,13.07
2018-06-28T21:24:36.446Z,17.37
2018-06-28T21:27:04.912Z,15.70
2018-06-28T21:29:33.097Z,22.30
2018-06-28T21:32:01.769Z,18.00
2018-06-28T21:34:29.928Z,19.83
2018-06-28T21:36:59.089Z,24.53
2018-06-28T21:39:27.574Z,20.10
2018-06-28T21:41:56.274Z,28.10
2018-06-28T21:44:24.714Z,24.13
2018-06-28T21:46:53.230Z,21.00
2018-06-28T21:49:21.711Z,23.40
2018-06-28T21:51:50.165Z,19.53
2018-06-28T21:54:18.614Z,20.00
2018-06-28T21:56:47.111Z,19.80
2018-06-28T21:59:16.413Z,22.63
2018-06-28T22:01:49.081Z,19.67
2018-06-28T22:04:18.289Z,20.47
2018-06-28T22:06:46.909Z,17.90
2018-06-28T22:09:16.169Z,19.43
2018-06-28T22:11:44.525Z,20.13
2018-06-28T22:14:13.709Z,18.70
2018-06-28T22:16:42.119Z,16.87
2018-06-28T22:19:10.609Z,18.07
2018-06-28T22:21:38.950Z,26.00
2018-06-28T22:24:07.530Z,20.13
2018-06-28T22:26:36.127Z,20.60
2018-06-28T22:29:04.736Z,16.87
2018-06-28T22:31:33.402Z,16.40
2018-06-28T22:34:01.914Z,21.20
2018-06-28T22:36:30.422Z,17.63
2018-06-28T22:38:58.894Z,18.10
2018-06-28T22:41:27.377Z,19.27
2018-06-28T22:43:55.837Z,14.60
2018-06-28T22:46:23.989Z,17.23
2018-06-28T22:48:52.491Z,16.87
2018-06-28T22:51:20.672Z,18.70
2018-06-28T22:53:49.121Z,16.93
2018-06-28T22:56:17.593Z,14.90
2018-06-28T22:58:46.034Z,17.47
2018-06-28T23:01:14.466Z,17.90
2018-06-28T23:03:42.982Z,13.20
2018-06-28T23:06:11.173Z,14.90
2018-06-28T23:08:39.525Z,13.83
2018-06-28T23:11:07.984Z,17.60
2018-06-28T23:13:36.598Z,19.30
2018-06-28T23:16:04.801Z,16.83
2018-06-28T23:18:33.326Z,15.73
2018-06-28T23:21:01.782Z,18.40
2018-06-28T23:23:30.239Z,19.10
2018-06-28T23:25:58.722Z,19.93
2018-06-28T23:28:27.212Z,15.80
2018-06-28T23:30:55.739Z,20.17
2018-06-28T23:33:25.238Z,17.90
2018-06-28T23:35:53.773Z,20.03
2018-06-28T23:38:22.247Z,17.70
2018-06-28T23:40:50.366Z,22.40
2018-06-28T23:43:18.957Z,18.07
2018-06-28T23:45:47.376Z,15.20
2018-06-28T23:48:15.864Z,17.30
2018-06-28T23:50:44.044Z,18.73
2018-06-28T23:53:12.509Z,15.50
2018-06-28T23:55:40.962Z,14.83
2018-06-28T23:58:09.666Z,15.17
